createdAt,value
2022-08-28T00:01:30.252Z,16.15
2022-08-28T00:04:01.354Z,16.07
2022-08-28T00:06:30.008Z,16.13
2022-08-28T00:08:59.184Z,16.14
2022-08-28T00:11:27.517Z,16.16
2022-08-28T00:13:56.722Z,16.14
2022-08-28T00:16:26.190Z,16.18
2022-08-28T00:18:56.837Z,16.16
2022-08-28T00:21:26.292Z,16.16
2022-08-28T00:23:54.834Z,16.16
2022-08-28T00:26:39.219Z,16.09
2022-08-28T00:29:09.490Z,16.16
2022-08-28T00:31:39.846Z,16.18
2022-08-28T00:34:12.438Z,16.13
2022-08-28T00:36:48.050Z,16.15
2022-08-28T00:39:17.628Z,16.06
2022-08-28T00:41:51.021Z,16.02
2022-08-28T00:44:28.335Z,16.06
2022-08-28T00:46:59.432Z,16.08
2022-08-28T00:49:31.903Z,16.09
2022-08-28T00:52:09.083Z,16.11
2022-08-28T00:54:59.383Z,16.09
2022-08-28T00:57:32.527Z,16.12
2022-08-28T01:00:03.479Z,16.15
2022-08-28T01:02:36.935Z,16.01
2022-08-28T01:05:09.861Z,15.95
2022-08-28T01:07:39.927Z,16.02
2022-08-28T01:10:22.642Z,16.08
2022-08-28T01:12:52.304Z,16.07
2022-08-28T01:15:25.087Z,16.01
2022-08-28T01:18:04.661Z,16.05
2022-08-28T01:20:44.472Z,16.10
2022-08-28T01:23:20.024Z,16.05
2022-08-28T01:25:50.069Z,15.99
2022-08-28T01:28:18.913Z,16.00
2022-08-28T01:30:49.187Z,15.98
2022-08-28T01:33:19.734Z,15.96
2022-08-28T01:35:56.583Z,15.91
2022-08-28T01:38:27.141Z,15.94
2022-08-28T01:40:59.887Z,15.92
2022-08-28T01:43:31.710Z,15.93
2022-08-28T01:46:03.285Z,15.91
2022-08-28T01:48:34.768Z,15.83
2022-08-28T01:51:03.593Z,15.80
2022-08-28T01:53:33.878Z,15.77
2022-08-28T01:56:09.398Z,15.79
2022-08-28T01:58:38.909Z,15.75
2022-08-28T02:01:12.069Z,15.69
2022-08-28T02:03:43.467Z,15.65
2022-08-28T02:06:12.978Z,15.66
2022-08-28T02:08:41.392Z,15.69
2022-08-28T02:11:12.581Z,15.67
2022-08-28T02:13:42.357Z,15.63
2022-08-28T02:16:12.836Z,15.54
2022-08-28T02:18:41.988Z,15.54
2022-08-28T02:21:11.718Z,15.50
2022-08-28T02:23:41.811Z,15.50
2022-08-28T02:26:13.620Z,15.50
2022-08-28T02:28:43.055Z,15.47
2022-08-28T02:31:13.305Z,15.48
2022-08-28T02:33:44.028Z,15.52
2022-08-28T02:36:14.717Z,15.48
2022-08-28T02:38:44.190Z,15.41
2022-08-28T02:41:14.807Z,15.45
2022-08-28T02:43:43.273Z,15.43
2022-08-28T02:46:12.028Z,15.42
2022-08-28T02:48:42.768Z,15.39
2022-08-28T02:51:13.748Z,15.46
2022-08-28T02:53:43.428Z,15.40
2022-08-28T02:56:15.341Z,15.37
2022-08-28T02:58:44.037Z,15.36
2022-08-28T03:01:14.743Z,15.35
2022-08-28T03:03:45.249Z,15.34
2022-08-28T03:06:14.657Z,15.31
2022-08-28T03:08:44.202Z,15.36
2022-08-28T03:11:15.425Z,15.37
2022-08-28T03:13:43.741Z,15.34
2022-08-28T03:16:12.875Z,15.30
2022-08-28T03:18:42.035Z,15.28
2022-08-28T03:21:11.643Z,15.29
2022-08-28T03:23:42.068Z,15.25
2022-08-28T03:26:12.969Z,15.30
2022-08-28T03:28:45.924Z,15.30
2022-08-28T03:31:18.273Z,15.31
2022-08-28T03:33:48.209Z,15.30
2022-08-28T03:36:19.477Z,15.23
2022-08-28T03:38:48.009Z,15.23
2022-08-28T03:41:19.668Z,15.28
2022-08-28T03:43:49.795Z,15.29
2022-08-28T03:46:25.228Z,15.27
2022-08-28T03:48:55.028Z,15.25
2022-08-28T03:51:29.276Z,15.25
2022-08-28T03:53:59.130Z,15.29
2022-08-28T03:56:36.617Z,15.27
2022-08-28T03:59:06.533Z,15.27
2022-08-28T04:01:35.233Z,15.27
2022-08-28T04:04:04.706Z,15.25
2022-08-28T04:06:33.388Z,15.20
2022-08-28T04:09:04.836Z,15.22
2022-08-28T04:11:38.123Z,15.19
2022-08-28T04:14:08.232Z,15.17
2022-08-28T04:16:37.941Z,15.16
2022-08-28T04:19:06.313Z,15.11
2022-08-28T04:21:34.980Z,15.09
2022-08-28T04:24:06.779Z,15.09
2022-08-28T04:26:38.190Z,15.13
2022-08-28T04:29:08.837Z,15.16
2022-08-28T04:31:37.477Z,15.17
2022-08-28T04:34:08.869Z,15.09
2022-08-28T04:36:37.954Z,15.14
2022-08-28T04:39:08.881Z,15.09
2022-08-28T04:41:38.924Z,15.10
2022-08-28T04:44:11.133Z,15.09
2022-08-28T04:46:39.920Z,15.10
2022-08-28T04:49:08.520Z,15.08
2022-08-28T04:51:41.842Z,15.08
2022-08-28T04:54:12.070Z,15.06
2022-08-28T04:56:43.629Z,15.11
2022-08-28T04:59:14.150Z,15.13
2022-08-28T05:01:43.934Z,15.15
2022-08-28T05:04:14.421Z,15.18
2022-08-28T05:06:46.639Z,15.24
2022-08-28T05:09:21.044Z,15.22
2022-08-28T05:11:50.538Z,15.21
2022-08-28T05:14:22.130Z,15.20
2022-08-28T05:16:53.258Z,15.21
2022-08-28T05:19:23.201Z,15.18
2022-08-28T05:21:52.269Z,15.21
2022-08-28T05:24:21.653Z,15.20
2022-08-28T05:26:50.288Z,15.22
2022-08-28T05:29:19.028Z,15.19
2022-08-28T05:31:49.201Z,15.15
2022-08-28T05:34:18.552Z,15.13
2022-08-28T05:36:47.179Z,15.13
2022-08-28T05:39:15.818Z,15.09
2022-08-28T05:41:46.875Z,15.10
2022-08-28T05:44:17.826Z,15.09
2022-08-28T05:46:49.105Z,15.10
2022-08-28T05:49:20.175Z,15.13
2022-08-28T05:51:49.424Z,15.11
2022-08-28T05:54:18.604Z,15.15
2022-08-28T05:56:47.739Z,15.14
2022-08-28T05:59:17.284Z,15.17
2022-08-28T06:01:48.171Z,15.19
2022-08-28T06:04:23.909Z,15.21
2022-08-28T06:06:53.215Z,15.24
2022-08-28T06:09:28.957Z,15.26
2022-08-28T06:12:00.223Z,15.31
2022-08-28T06:14:30.128Z,15.36
2022-08-28T06:16:59.859Z,15.39
2022-08-28T06:19:32.413Z,15.40
2022-08-28T06:22:07.010Z,15.40
2022-08-28T06:24:36.445Z,15.43
2022-08-28T06:27:04.940Z,15.43
2022-08-28T06:29:33.532Z,15.45
2022-08-28T06:32:04.778Z,15.55
2022-08-28T06:34:34.973Z,15.59
2022-08-28T06:37:03.525Z,15.57
2022-08-28T06:39:32.489Z,15.58
2022-08-28T06:42:01.927Z,15.60
2022-08-28T06:44:32.680Z,15.61
2022-08-28T06:47:01.473Z,15.67
2022-08-28T06:49:30.110Z,15.71
2022-08-28T06:52:00.377Z,15.75
2022-08-28T06:54:31.356Z,15.83
2022-08-28T06:57:01.204Z,15.82
2022-08-28T06:59:29.793Z,15.83
2022-08-28T07:01:59.700Z,15.87
2022-08-28T07:04:28.167Z,15.88
2022-08-28T07:06:56.703Z,15.89
2022-08-28T07:09:27.206Z,15.91
2022-08-28T07:12:03.872Z,16.01
2022-08-28T07:14:32.445Z,16.06
2022-08-28T07:17:00.938Z,16.10
2022-08-28T07:19:29.432Z,16.12
2022-08-28T07:21:58.036Z,16.16
2022-08-28T07:24:29.827Z,16.18
2022-08-28T07:26:58.464Z,16.22
2022-08-28T07:29:27.420Z,16.24
2022-08-28T07:31:59.192Z,16.15
2022-08-28T07:34:28.226Z,16.18
2022-08-28T07:36:58.381Z,16.16
2022-08-28T07:39:28.402Z,16.26
2022-08-28T07:41:58.485Z,16.36
2022-08-28T07:44:44.344Z,16.40
2022-08-28T07:47:13.181Z,16.48
2022-08-28T07:49:42.325Z,16.64
2022-08-28T07:52:12.180Z,16.60
2022-08-28T07:54:42.162Z,16.48
2022-08-28T07:57:11.790Z,16.58
2022-08-28T07:59:43.411Z,16.68
2022-08-28T08:02:12.331Z,16.76
2022-08-28T08:04:41.371Z,16.67
2022-08-28T08:07:09.894Z,16.64
2022-08-28T08:09:39.979Z,16.70
2022-08-28T08:12:12.801Z,16.74
2022-08-28T08:14:43.615Z,16.81
2022-08-28T08:17:13.231Z,16.92
2022-08-28T08:19:42.042Z,16.99
2022-08-28T08:22:10.675Z,17.11
2022-08-28T08:24:39.198Z,17.03
2022-08-28T08:27:08.466Z,17.05
2022-08-28T08:29:42.714Z,17.08
2022-08-28T08:32:12.925Z,17.02
2022-08-28T08:34:43.518Z,17.12
2022-08-28T08:37:14.119Z,17.13
2022-08-28T08:39:44.201Z,17.21
2022-08-28T08:42:24.047Z,17.20
2022-08-28T08:44:56.942Z,17.14
2022-08-28T08:47:37.651Z,17.30
2022-08-28T08:50:13.724Z,17.46
2022-08-28T08:52:53.846Z,17.50
2022-08-28T08:55:28.636Z,17.53
2022-08-28T08:58:10.994Z,17.57
2022-08-28T09:00:48.188Z,17.60
2022-08-28T09:03:27.767Z,17.75
2022-08-28T09:05:59.982Z,17.79
2022-08-28T09:08:35.475Z,17.71
2022-08-28T09:11:16.618Z,17.57
2022-08-28T09:13:54.577Z,17.61
2022-08-28T09:16:32.113Z,17.77
2022-08-28T09:19:02.722Z,17.93
2022-08-28T09:21:33.734Z,18.11
2022-08-28T09:24:11.072Z,18.15
2022-08-28T09:26:41.959Z,18.31
2022-08-28T09:29:19.541Z,18.32
2022-08-28T09:31:50.939Z,18.29
2022-08-28T09:34:36.678Z,18.34
2022-08-28T09:37:09.846Z,18.58
2022-08-28T09:39:46.659Z,18.47
2022-08-28T09:42:41.406Z,18.69
2022-08-28T09:45:18.889Z,18.57
2022-08-28T09:47:51.480Z,18.61
2022-08-28T09:50:33.313Z,18.61
2022-08-28T09:53:18.553Z,18.52
2022-08-28T09:55:58.420Z,18.59
2022-08-28T09:58:36.213Z,18.72
2022-08-28T10:01:16.937Z,18.99
2022-08-28T10:04:00.448Z,19.14
2022-08-28T10:06:33.983Z,19.18
2022-08-28T10:09:18.246Z,19.16
2022-08-28T10:11:56.424Z,19.25
2022-08-28T10:14:45.675Z,19.45
2022-08-28T10:17:26.766Z,19.36
2022-08-28T10:20:06.035Z,19.14
2022-08-28T10:22:44.933Z,19.24
2022-08-28T10:25:23.765Z,19.36
2022-08-28T10:28:17.188Z,19.33
2022-08-28T10:31:01.731Z,19.51
2022-08-28T10:33:55.137Z,19.42
2022-08-28T10:36:33.912Z,19.23
2022-08-28T10:39:15.748Z,19.47
2022-08-28T10:41:50.104Z,19.24
2022-08-28T10:44:24.644Z,19.17
2022-08-28T10:46:56.986Z,19.30
2022-08-28T10:49:30.290Z,19.38
2022-08-28T10:52:04.994Z,19.53
2022-08-28T10:54:41.108Z,19.53
2022-08-28T10:57:21.001Z,19.49
2022-08-28T10:59:53.937Z,19.46
2022-08-28T11:02:27.365Z,19.21
2022-08-28T11:04:58.820Z,19.11
2022-08-28T11:07:34.097Z,19.34
2022-08-28T11:10:20.004Z,19.41
2022-08-28T11:12:52.169Z,19.27
2022-08-28T11:15:53.682Z,19.38
2022-08-28T11:18:57.530Z,19.18
2022-08-28T11:21:29.051Z,19.22
2022-08-28T11:24:07.066Z,19.24
2022-08-28T11:26:42.793Z,19.30
2022-08-28T11:29:12.336Z,19.33
2022-08-28T11:31:43.557Z,19.12
2022-08-28T11:34:44.638Z,19.11
2022-08-28T11:37:40.721Z,18.96
2022-08-28T11:40:19.537Z,19.05
2022-08-28T11:42:49.863Z,19.10
2022-08-28T11:45:24.584Z,19.10
2022-08-28T11:47:57.971Z,18.99
2022-08-28T11:51:08.045Z,18.93
2022-08-28T11:53:54.637Z,19.13
2022-08-28T11:56:59.390Z,19.20
2022-08-28T12:00:14.048Z,19.22
2022-08-28T12:03:14.491Z,19.46
2022-08-28T12:05:50.574Z,19.36
2022-08-28T12:09:10.581Z,19.24
2022-08-28T12:11:54.623Z,19.30
2022-08-28T12:15:01.273Z,19.33
2022-08-28T12:17:54.518Z,19.26
2022-08-28T12:20:31.002Z,19.27
2022-08-28T12:23:04.321Z,19.27
2022-08-28T12:25:39.910Z,19.49
2022-08-28T12:28:21.281Z,19.48
2022-08-28T12:30:59.059Z,19.24
2022-08-28T12:33:42.859Z,19.25
2022-08-28T12:36:19.599Z,19.24
2022-08-28T12:38:53.192Z,19.15
2022-08-28T12:41:25.104Z,19.24
2022-08-28T12:43:57.466Z,19.35
2022-08-28T12:46:30.960Z,19.39
2022-08-28T12:49:03.581Z,19.24
2022-08-28T12:51:33.894Z,19.30
2022-08-28T12:54:05.477Z,19.47
2022-08-28T12:56:38.120Z,19.42
2022-08-28T12:59:27.233Z,19.36
2022-08-28T13:02:02.693Z,19.43
2022-08-28T13:04:38.957Z,19.22
2022-08-28T13:07:12.918Z,18.91
2022-08-28T13:09:49.833Z,18.95
2022-08-28T13:12:23.629Z,19.14
2022-08-28T13:15:07.775Z,18.93
2022-08-28T13:17:49.234Z,19.04
2022-08-28T13:20:32.389Z,19.12
2022-08-28T13:23:01.949Z,18.91
2022-08-28T13:25:33.794Z,18.86
2022-08-28T13:28:05.009Z,18.93
2022-08-28T13:30:35.791Z,18.96
2022-08-28T13:33:20.479Z,18.78
2022-08-28T13:35:51.464Z,18.63
2022-08-28T13:38:26.930Z,18.49
2022-08-28T13:41:01.806Z,18.55
2022-08-28T13:43:50.974Z,18.59
2022-08-28T13:46:25.772Z,18.42
2022-08-28T13:48:54.357Z,18.36
2022-08-28T13:51:26.645Z,18.44
2022-08-28T13:54:00.623Z,18.39
2022-08-28T13:56:37.903Z,18.39
2022-08-28T13:59:13.281Z,18.27
2022-08-28T14:01:59.860Z,18.45
2022-08-28T14:04:28.606Z,18.36
2022-08-28T14:06:58.786Z,18.33
2022-08-28T14:09:28.153Z,18.31
2022-08-28T14:11:57.576Z,18.34
2022-08-28T14:14:26.194Z,18.46
2022-08-28T14:16:56.883Z,18.43
2022-08-28T14:19:26.357Z,18.59
2022-08-28T14:21:55.466Z,18.72
2022-08-28T14:24:27.261Z,18.54
2022-08-28T14:26:55.993Z,18.59
2022-08-28T14:29:24.488Z,18.72
2022-08-28T14:31:53.480Z,18.70
2022-08-28T14:34:24.037Z,18.84
2022-08-28T14:36:55.672Z,18.93
2022-08-28T14:39:28.617Z,18.88
2022-08-28T14:41:57.966Z,18.82
2022-08-28T14:44:27.113Z,18.82
2022-08-28T14:46:56.946Z,18.94
2022-08-28T14:49:27.126Z,19.00
2022-08-28T14:51:57.706Z,19.09
2022-08-28T14:54:28.068Z,19.02
2022-08-28T14:56:57.049Z,19.10
2022-08-28T14:59:31.066Z,19.09
2022-08-28T15:02:02.556Z,19.12
2022-08-28T15:04:35.593Z,18.98
2022-08-28T15:07:06.897Z,19.10
2022-08-28T15:09:39.903Z,19.00
2022-08-28T15:12:09.156Z,19.05
2022-08-28T15:14:38.332Z,19.20
2022-08-28T15:17:08.703Z,19.18
2022-08-28T15:19:37.142Z,19.06
2022-08-28T15:22:05.827Z,18.97
2022-08-28T15:24:34.922Z,18.98
2022-08-28T15:27:07.592Z,19.05
2022-08-28T15:29:36.020Z,18.91
2022-08-28T15:32:10.246Z,19.19
2022-08-28T15:34:44.623Z,19.05
2022-08-28T15:37:14.030Z,19.12
2022-08-28T15:40:04.528Z,19.14
2022-08-28T15:42:34.644Z,18.93
2022-08-28T15:45:03.241Z,18.78
2022-08-28T15:47:31.801Z,18.68
2022-08-28T15:50:01.613Z,18.79
2022-08-28T15:52:34.192Z,18.84
2022-08-28T15:55:02.921Z,18.94
2022-08-28T15:57:31.663Z,18.92
2022-08-28T16:00:02.298Z,18.84
2022-08-28T16:02:31.959Z,18.74
2022-08-28T16:05:01.593Z,18.85
2022-08-28T16:07:30.614Z,18.92
2022-08-28T16:09:59.330Z,18.86
2022-08-28T16:12:27.970Z,18.92
2022-08-28T16:14:56.401Z,18.91
2022-08-28T16:17:26.432Z,18.91
2022-08-28T16:19:55.127Z,18.83
2022-08-28T16:22:25.076Z,18.94
2022-08-28T16:24:54.721Z,18.82
2022-08-28T16:27:25.615Z,18.78
2022-08-28T16:29:54.455Z,18.52
2022-08-28T16:32:23.410Z,18.53
2022-08-28T16:34:56.648Z,18.56
2022-08-28T16:37:37.751Z,18.51
2022-08-28T16:40:11.036Z,18.51
2022-08-28T16:42:41.841Z,18.52
2022-08-28T16:45:20.119Z,18.49
2022-08-28T16:47:50.591Z,18.52
2022-08-28T16:50:21.077Z,18.54
2022-08-28T16:52:50.745Z,18.34
2022-08-28T16:55:21.213Z,18.39
2022-08-28T16:57:49.842Z,18.43
2022-08-28T17:00:20.534Z,18.42
2022-08-28T17:02:56.519Z,18.51
2022-08-28T17:05:26.727Z,18.34
2022-08-28T17:07:56.356Z,18.23
2022-08-28T17:10:26.202Z,18.29
2022-08-28T17:12:54.885Z,18.35
2022-08-28T17:15:28.404Z,18.36
2022-08-28T17:17:58.196Z,18.20
2022-08-28T17:20:47.938Z,18.20
2022-08-28T17:23:16.576Z,18.19
2022-08-28T17:25:45.182Z,18.26
2022-08-28T17:28:14.773Z,18.31
2022-08-28T17:30:47.114Z,18.29
2022-08-28T17:33:15.592Z,18.24
2022-08-28T17:35:46.644Z,18.24
2022-08-28T17:38:20.786Z,18.20
2022-08-28T17:40:49.899Z,18.11
2022-08-28T17:43:18.983Z,18.07
2022-08-28T17:45:47.909Z,17.99
2022-08-28T17:48:18.702Z,18.03
2022-08-28T17:50:50.767Z,17.99
2022-08-28T17:53:22.602Z,17.91
2022-08-28T17:55:54.574Z,17.94
2022-08-28T17:58:23.157Z,17.96
2022-08-28T18:00:53.344Z,17.91
2022-08-28T18:03:23.710Z,17.90
2022-08-28T18:05:54.759Z,17.87
2022-08-28T18:08:24.058Z,17.84
2022-08-28T18:11:04.252Z,17.78
2022-08-28T18:13:33.894Z,17.74
2022-08-28T18:16:02.963Z,17.64
2022-08-28T18:18:36.469Z,17.67
2022-08-28T18:21:07.458Z,17.57
2022-08-28T18:23:36.299Z,17.51
2022-08-28T18:26:06.355Z,17.46
2022-08-28T18:28:36.053Z,17.53
2022-08-28T18:31:06.489Z,17.54
2022-08-28T18:33:37.003Z,17.50
2022-08-28T18:36:11.469Z,17.46
2022-08-28T18:38:41.054Z,17.41
2022-08-28T18:41:11.246Z,17.46
2022-08-28T18:43:41.216Z,17.50
2022-08-28T18:46:17.185Z,17.46
2022-08-28T18:48:47.143Z,17.42
2022-08-28T18:51:21.678Z,17.36
2022-08-28T18:53:51.174Z,17.30
2022-08-28T18:56:20.477Z,17.26
2022-08-28T18:58:51.639Z,17.27
2022-08-28T19:01:20.591Z,17.16
2022-08-28T19:03:50.191Z,17.12
2022-08-28T19:06:25.331Z,17.14
2022-08-28T19:08:53.888Z,17.16
2022-08-28T19:11:22.880Z,17.15
2022-08-28T19:13:51.605Z,17.07
2022-08-28T19:16:22.528Z,17.09
2022-08-28T19:18:53.190Z,17.07
2022-08-28T19:21:23.364Z,17.04
2022-08-28T19:23:55.966Z,16.99
2022-08-28T19:26:25.888Z,16.96
2022-08-28T19:28:55.382Z,16.93
2022-08-28T19:31:25.519Z,16.91
2022-08-28T19:33:55.814Z,16.85
2022-08-28T19:36:30.161Z,16.81
2022-08-28T19:38:58.608Z,16.70
2022-08-28T19:41:28.324Z,16.63
2022-08-28T19:43:57.789Z,16.64
2022-08-28T19:46:26.764Z,16.63
2022-08-28T19:48:57.361Z,16.60
2022-08-28T19:51:27.871Z,16.61
2022-08-28T19:53:58.899Z,16.62
2022-08-28T19:56:30.394Z,16.65
2022-08-28T19:59:01.954Z,16.67
2022-08-28T20:01:33.075Z,16.68
2022-08-28T20:04:02.336Z,16.67
2022-08-28T20:06:35.098Z,16.62
2022-08-28T20:09:04.425Z,16.58
2022-08-28T20:11:33.582Z,16.56
2022-08-28T20:14:07.976Z,16.56
2022-08-28T20:16:41.734Z,16.53
2022-08-28T20:19:12.320Z,16.52
2022-08-28T20:21:45.731Z,16.52
2022-08-28T20:24:18.076Z,16.55
2022-08-28T20:26:46.719Z,16.53
2022-08-28T20:29:16.937Z,16.57
2022-08-28T20:31:48.232Z,16.52
2022-08-28T20:34:18.419Z,16.45
2022-08-28T20:36:48.974Z,16.43
2022-08-28T20:39:18.333Z,16.41
2022-08-28T20:41:47.533Z,16.37
2022-08-28T20:44:18.713Z,16.35
2022-08-28T20:46:51.481Z,16.34
2022-08-28T20:49:24.074Z,16.30
2022-08-28T20:51:57.904Z,16.30
2022-08-28T20:54:29.350Z,16.30
2022-08-28T20:56:59.625Z,16.30
2022-08-28T20:59:35.456Z,16.29
2022-08-28T21:02:11.846Z,16.34
2022-08-28T21:04:42.643Z,16.35
2022-08-28T21:07:13.478Z,16.36
2022-08-28T21:10:06.180Z,16.32
2022-08-28T21:12:31.152Z,16.28
2022-08-28T21:15:00.100Z,16.26
2022-08-28T21:17:30.751Z,16.24
2022-08-28T21:20:02.937Z,16.23
2022-08-28T21:22:36.022Z,16.25
2022-08-28T21:25:07.365Z,16.24
2022-08-28T21:27:36.771Z,16.21
2022-08-28T21:30:07.993Z,16.18
2022-08-28T21:32:42.577Z,16.15
2022-08-28T21:35:13.561Z,16.15
2022-08-28T21:37:45.582Z,16.16
2022-08-28T21:40:15.976Z,16.16
2022-08-28T21:42:47.869Z,16.14
2022-08-28T21:45:16.447Z,16.14
2022-08-28T21:47:44.900Z,16.12
2022-08-28T21:50:14.106Z,16.13
2022-08-28T21:52:42.799Z,16.13
2022-08-28T21:55:16.380Z,16.14
2022-08-28T21:57:45.288Z,16.10
2022-08-28T22:00:18.227Z,16.06
2022-08-28T22:02:50.422Z,16.05
2022-08-28T22:05:20.719Z,16.02
2022-08-28T22:07:51.250Z,16.02
2022-08-28T22:10:23.423Z,16.00
2022-08-28T22:12:53.119Z,15.99
2022-08-28T22:15:23.346Z,15.99
2022-08-28T22:17:53.134Z,16.00
2022-08-28T22:20:21.593Z,16.00
2022-08-28T22:23:07.759Z,16.01
2022-08-28T22:25:40.831Z,15.98
2022-08-28T22:28:10.754Z,15.96
2022-08-28T22:30:40.631Z,15.99
2022-08-28T22:33:10.955Z,16.00
2022-08-28T22:35:40.224Z,16.04
2022-08-28T22:38:11.608Z,16.05
2022-08-28T22:40:41.858Z,16.02
2022-08-28T22:43:10.589Z,15.99
2022-08-28T22:45:39.439Z,16.01
2022-08-28T22:48:08.338Z,16.00
2022-08-28T22:50:36.925Z,16.01
2022-08-28T22:53:06.730Z,16.02
2022-08-28T22:55:37.833Z,16.00
2022-08-28T22:58:11.335Z,15.99
2022-08-28T23:00:41.505Z,15.96
2022-08-28T23:03:13.201Z,15.94
2022-08-28T23:05:43.733Z,15.94
2022-08-28T23:08:12.247Z,15.93
2022-08-28T23:10:57.930Z,15.92
2022-08-28T23:13:31.044Z,15.95
2022-08-28T23:15:59.620Z,15.94
2022-08-28T23:18:46.309Z,15.93
2022-08-28T23:21:20.425Z,15.94
2022-08-28T23:23:50.193Z,15.96
2022-08-28T23:26:25.490Z,15.95
2022-08-28T23:28:56.575Z,15.94
2022-08-28T23:31:25.161Z,15.92
2022-08-28T23:34:03.331Z,15.88
2022-08-28T23:36:35.851Z,15.88
2022-08-28T23:39:12.066Z,15.87
2022-08-28T23:41:41.785Z,15.84
2022-08-28T23:44:11.924Z,15.82
2022-08-28T23:46:42.375Z,15.83
2022-08-28T23:49:11.855Z,15.80
2022-08-28T23:51:43.761Z,15.82
2022-08-28T23:54:13.374Z,15.83
2022-08-28T23:56:43.181Z,15.84
2022-08-28T23:59:14.412Z,15.84
